Time;durP1;ratioP1;P1;durP2;ratioP2;P2;SDS_P1;SDS_P2;PMS_P1;PMS_P2;Temp;Humidity;BMP_temperature;BMP_pressure;BME280_temperature;BME280_humidity;BME280_pressure;Samples;Min_cycle;Max_cycle;Signal;HPM_P1;HPM_P2
2023/11/27 05:01:58;;;;;;;1.10;1.00;;;3.90;97.30;;;;;;5264097;23;20591;-87
2023/11/27 05:04:24;;;;;;;1.63;1.57;;;3.90;97.30;;;;;;4914709;29;20551;-87
2023/11/27 05:06:49;;;;;;;2.50;2.30;;;3.90;97.30;;;;;;4899304;29;20248;-87
2023/11/27 05:09:16;;;;;;;5.00;2.23;;;3.90;97.30;;;;;;4915311;29;20244;-85
2023/11/27 05:11:42;;;;;;;1.67;1.47;;;3.90;97.30;;;;;;4917444;29;20207;-87
2023/11/27 05:14:08;;;;;;;2.30;1.50;;;3.80;97.30;;;;;;4915714;29;20436;-86
2023/11/27 05:16:33;;;;;;;1.20;1.10;;;3.80;97.30;;;;;;4902085;29;20496;-86
2023/11/27 05:18:59;;;;;;;3.63;1.50;;;3.80;97.30;;;;;;4906243;29;20188;-90
2023/11/27 05:21:24;;;;;;;1.50;1.40;;;3.90;97.30;;;;;;4913244;29;20775;-87
2023/11/27 05:23:50;;;;;;;2.00;1.33;;;3.80;97.30;;;;;;4901101;29;20602;-87
2023/11/27 05:26:16;;;;;;;1.10;1.00;;;3.80;97.30;;;;;;4900830;29;20232;-89
2023/11/27 05:28:41;;;;;;;2.77;2.63;;;3.80;97.30;;;;;;4902087;29;20195;-86
2023/11/27 05:31:07;;;;;;;1.00;0.90;;;3.80;97.30;;;;;;4900922;29;20472;-89
2023/11/27 05:33:33;;;;;;;1.30;1.20;;;3.80;97.30;;;;;;4910809;29;20284;-88
2023/11/27 05:36:00;;;;;;;1.00;0.90;;;3.80;97.30;;;;;;4900871;29;20331;-89
2023/11/27 05:38:26;;;;;;;1.53;1.47;;;3.80;97.30;;;;;;4914797;29;20548;-86
2023/11/27 05:40:51;;;;;;;1.50;1.40;;;3.80;97.30;;;;;;4900382;29;20559;-87
2023/11/27 05:43:17;;;;;;;1.57;1.47;;;3.80;97.30;;;;;;4904785;29;20184;-90
2023/11/27 05:45:45;;;;;;;2.50;1.77;;;3.80;97.30;;;;;;4902356;29;20208;-86
2023/11/27 05:48:11;;;;;;;2.70;1.60;;;3.90;97.30;;;;;;4901088;29;20188;-85
2023/11/27 05:50:41;;;;;;;2.53;1.87;;;3.80;97.30;;;;;;4919180;29;20427;-87
2023/11/27 05:53:12;;;;;;;1.30;1.20;;;3.90;97.30;;;;;;4901337;29;20979;-89
2023/11/27 05:55:40;;;;;;;2.30;1.53;;;3.90;97.30;;;;;;4901028;29;20436;-89
2023/11/27 05:58:06;;;;;;;1.53;1.43;;;3.90;97.30;;;;;;4908560;29;20475;-89
2023/11/27 06:00:32;;;;;;;4.00;1.73;;;3.80;97.30;;;;;;4911710;29;20701;-85
2023/11/27 06:02:58;;;;;;;1.23;1.20;;;3.90;97.30;;;;;;4917427;29;20440;-87
2023/11/27 06:05:24;;;;;;;3.80;2.30;;;3.80;97.30;;;;;;4912191;29;20275;-90
2023/11/27 06:07:50;;;;;;;1.40;1.30;;;3.80;97.30;;;;;;4920090;29;20523;-88
2023/11/27 06:10:19;;;;;;;1.37;1.27;;;3.80;97.30;;;;;;4910823;29;20443;-89
2023/11/27 06:12:44;;;;;;;1.83;1.73;;;3.80;97.30;;;;;;4929792;29;20415;-89
2023/11/27 06:15:17;;;;;;;3.53;2.30;;;3.80;97.30;;;;;;4910409;29;20535;-88
2023/11/27 06:17:45;;;;;;;4.97;2.13;;;3.80;97.30;;;;;;4922722;29;20228;-88
2023/11/27 06:20:17;;;;;;;1.40;1.30;;;3.80;97.30;;;;;;4927365;29;20440;-89
2023/11/27 06:22:42;;;;;;;2.43;1.83;;;3.80;97.30;;;;;;4916039;29;20563;-87
2023/11/27 06:25:09;;;;;;;1.30;1.20;;;3.80;97.30;;;;;;4919243;29;20466;-87
2023/11/27 06:27:35;;;;;;;1.83;1.33;;;3.80;97.30;;;;;;4920848;29;20205;-90
2023/11/27 06:30:01;;;;;;;2.23;2.03;;;3.80;97.30;;;;;;4901307;29;20806;-88
2023/11/27 06:32:26;;;;;;;1.10;1.00;;;3.80;97.30;;;;;;4912643;29;21018;-89
2023/11/27 06:34:52;;;;;;;1.40;1.30;;;3.80;97.30;;;;;;4905748;29;20501;-88
2023/11/27 06:37:18;;;;;;;1.20;1.10;;;3.70;97.30;;;;;;4922451;29;20726;-88
2023/11/27 06:39:43;;;;;;;1.93;1.23;;;3.70;97.30;;;;;;4920256;29;20558;-88
2023/11/27 06:42:13;;;;;;;1.00;0.90;;;3.70;97.30;;;;;;4904792;29;20715;-88
2023/11/27 06:44:39;;;;;;;1.33;1.23;;;3.70;97.30;;;;;;4912856;29;20258;-87
2023/11/27 06:47:04;;;;;;;1.10;1.00;;;3.70;97.30;;;;;;4908482;29;20432;-89
2023/11/27 06:49:30;;;;;;;2.60;2.40;;;3.70;97.30;;;;;;4905856;29;20436;-89
2023/11/27 06:51:56;;;;;;;2.50;1.80;;;3.70;97.30;;;;;;4922512;29;20208;-88
2023/11/27 06:54:21;;;;;;;2.20;2.00;;;3.70;97.30;;;;;;4903844;29;20196;-91
2023/11/27 06:56:47;;;;;;;1.33;1.23;;;3.70;97.30;;;;;;4922508;29;20250;-88
2023/11/27 06:59:12;;;;;;;1.10;1.00;;;3.70;97.30;;;;;;4915226;29;20204;-88
2023/11/27 07:01:41;;;;;;;1.20;1.10;;;3.70;97.30;;;;;;4902668;29;20273;-86
2023/11/27 07:04:08;;;;;;;1.53;1.43;;;3.70;97.30;;;;;;4907516;29;20534;-87
2023/11/27 07:06:35;;;;;;;2.07;1.93;;;3.70;97.30;;;;;;4901978;29;20481;-88
2023/11/27 07:09:04;;;;;;;2.27;2.13;;;3.60;97.30;;;;;;4905114;29;20532;-88
2023/11/27 07:11:34;;;;;;;4.90;2.00;;;3.60;97.30;;;;;;4900881;29;20463;-89
2023/11/27 07:14:00;;;;;;;2.83;2.67;;;3.60;97.30;;;;;;4902254;29;20429;-88
2023/11/27 07:16:27;;;;;;;1.67;1.57;;;3.60;97.30;;;;;;4897297;29;20721;-88
2023/11/27 07:18:54;;;;;;;2.40;2.20;;;3.60;97.30;;;;;;4900021;29;20418;-89
2023/11/27 07:21:20;;;;;;;1.17;1.07;;;3.50;97.30;;;;;;4899369;29;20739;-86
2023/11/27 07:23:45;;;;;;;1.63;1.53;;;3.50;97.30;;;;;;4899294;29;20440;-88
2023/11/27 07:26:11;;;;;;;1.43;1.33;;;3.50;97.30;;;;;;4901907;29;20532;-89
2023/11/27 07:28:42;;;;;;;0.90;0.80;;;3.50;97.30;;;;;;4903490;29;20185;-88
2023/11/27 07:31:10;;;;;;;1.17;1.07;;;3.50;97.30;;;;;;4897885;29;20208;-88
2023/11/27 07:33:37;;;;;;;1.23;1.13;;;3.50;97.30;;;;;;4904712;29;20572;-89
2023/11/27 07:36:06;;;;;;;1.67;1.33;;;3.40;97.30;;;;;;4906089;29;20444;-89
2023/11/27 07:38:32;;;;;;;1.40;1.30;;;3.40;97.30;;;;;;4905314;29;20474;-90
2023/11/27 07:40:57;;;;;;;1.20;1.10;;;3.40;97.30;;;;;;4908945;29;20456;-88
2023/11/27 07:43:23;;;;;;;1.00;0.90;;;3.40;97.30;;;;;;4898514;29;20576;-88
2023/11/27 07:45:48;;;;;;;1.53;1.43;;;3.40;97.30;;;;;;4904402;29;20240;-88
2023/11/27 07:48:14;;;;;;;1.27;1.03;;;3.40;97.30;;;;;;4904193;29;20205;-89
2023/11/27 07:50:40;;;;;;;1.17;1.07;;;3.50;97.30;;;;;;4905976;29;20276;-90
2023/11/27 07:53:07;;;;;;;1.70;1.60;;;3.50;97.30;;;;;;4903523;29;20191;-89
2023/11/27 07:55:33;;;;;;;1.27;1.20;;;3.50;97.30;;;;;;4900465;29;20437;-87
2023/11/27 07:57:59;;;;;;;1.50;1.40;;;3.50;97.30;;;;;;4899644;29;20428;-88
2023/11/27 08:00:26;;;;;;;2.60;1.77;;;3.60;97.30;;;;;;4900243;29;20453;-88
2023/11/27 08:02:53;;;;;;;6.23;2.23;;;3.60;97.30;;;;;;4907586;29;20258;-87
2023/11/27 08:05:20;;;;;;;0.93;0.83;;;3.50;97.30;;;;;;4905616;29;20472;-88
2023/11/27 08:07:47;;;;;;;1.10;1.00;;;3.50;97.30;;;;;;4906269;29;20445;-88
2023/11/27 08:10:12;;;;;;;1.27;1.17;;;3.60;97.30;;;;;;4905495;29;20456;-89
2023/11/27 08:12:38;;;;;;;1.10;1.00;;;3.60;97.30;;;;;;4922960;29;20847;-88
2023/11/27 08:15:06;;;;;;;1.23;1.13;;;3.70;97.30;;;;;;4905709;29;20686;-89
2023/11/27 08:17:32;;;;;;;1.30;1.20;;;3.70;97.30;;;;;;4920134;29;20738;-91
2023/11/27 08:19:57;;;;;;;2.20;1.37;;;3.70;97.30;;;;;;4907097;29;20470;-88
2023/11/27 08:22:23;;;;;;;2.07;1.83;;;3.70;97.30;;;;;;4917114;29;20472;-89
2023/11/27 08:24:49;;;;;;;1.23;1.13;;;3.70;97.30;;;;;;4900429;29;20302;-88
2023/11/27 08:27:14;;;;;;;1.27;1.17;;;3.70;97.30;;;;;;4900911;29;20184;-88
2023/11/27 08:29:40;;;;;;;1.80;1.23;;;3.80;97.30;;;;;;4916993;29;20416;-88
2023/11/27 08:32:06;;;;;;;1.97;1.80;;;3.80;97.30;;;;;;4902611;29;20228;-88
2023/11/27 08:34:33;;;;;;;3.80;2.60;;;3.80;97.30;;;;;;4923407;29;20516;-89
2023/11/27 08:36:59;;;;;;;1.07;0.97;;;3.90;97.30;;;;;;4915505;29;20560;-89
2023/11/27 08:39:25;;;;;;;1.00;0.90;;;3.90;97.30;;;;;;4898857;29;20955;-88
2023/11/27 08:41:51;;;;;;;1.50;1.40;;;3.90;97.30;;;;;;4905541;29;21010;-88
2023/11/27 08:44:18;;;;;;;2.27;2.13;;;3.90;97.30;;;;;;4898859;29;20428;-90
2023/11/27 08:46:44;;;;;;;1.30;1.20;;;3.90;97.30;;;;;;4915267;29;20844;-88
2023/11/27 08:49:10;;;;;;;1.10;1.00;;;3.90;97.30;;;;;;4902153;29;20477;-88
2023/11/27 08:51:36;;;;;;;1.80;1.60;;;3.90;97.30;;;;;;4903747;29;20864;-89
2023/11/27 08:54:02;;;;;;;1.33;1.30;;;4.00;97.30;;;;;;4902348;29;20505;-91
2023/11/27 08:56:33;;;;;;;1.50;1.40;;;4.00;97.30;;;;;;4901409;29;20436;-89
2023/11/27 08:59:00;;;;;;;1.50;1.40;;;4.00;97.30;;;;;;4903950;29;20516;-88
2023/11/27 09:01:25;;;;;;;1.93;1.83;;;4.00;97.30;;;;;;4901152;29;20697;-88
2023/11/27 09:03:51;;;;;;;0.97;0.87;;;4.10;97.30;;;;;;4899439;29;20667;-88
2023/11/27 09:06:17;;;;;;;1.30;1.20;;;4.10;97.30;;;;;;4916210;29;20200;-88
2023/11/27 09:08:43;;;;;;;1.13;1.00;;;4.10;97.30;;;;;;4899633;29;20268;-87
2023/11/27 09:11:10;;;;;;;1.27;1.17;;;4.10;97.30;;;;;;4899021;29;20536;-89
2023/11/27 09:13:36;;;;;;;1.87;1.77;;;4.10;97.30;;;;;;4915993;29;20177;-88
2023/11/27 09:16:02;;;;;;;1.80;1.77;;;4.10;97.30;;;;;;4902134;29;20436;-88
2023/11/27 09:18:27;;;;;;;1.50;1.40;;;4.20;97.30;;;;;;4901111;29;20199;-87
2023/11/27 09:20:54;;;;;;;2.80;2.53;;;4.30;97.30;;;;;;4898565;29;20208;-88
2023/11/27 09:23:19;;;;;;;1.33;1.23;;;4.30;97.30;;;;;;4902509;29;20192;-88
2023/11/27 09:25:46;;;;;;;1.33;1.23;;;4.30;97.30;;;;;;4915904;29;20519;-88
2023/11/27 09:28:11;;;;;;;0.90;0.80;;;4.30;97.30;;;;;;4903593;29;20655;-88
2023/11/27 09:30:37;;;;;;;1.50;1.40;;;4.40;97.30;;;;;;4915855;29;20420;-89
2023/11/27 09:33:04;;;;;;;1.43;1.33;;;4.40;97.30;;;;;;4902124;29;20721;-88
2023/11/27 09:35:29;;;;;;;1.10;1.00;;;4.40;97.30;;;;;;4902756;29;20196;-90
2023/11/27 09:37:55;;;;;;;1.33;1.23;;;4.40;97.30;;;;;;4915276;29;20419;-88
2023/11/27 09:40:21;;;;;;;1.60;1.57;;;4.40;97.30;;;;;;4898387;29;20192;-88
2023/11/27 09:42:47;;;;;;;1.93;1.87;;;4.40;97.30;;;;;;4898584;29;20199;-89
2023/11/27 09:45:16;;;;;;;1.57;1.00;;;4.40;97.30;;;;;;4901772;29;20508;-88
2023/11/27 09:47:44;;;;;;;1.10;1.00;;;4.40;97.30;;;;;;4898331;29;20421;-88
2023/11/27 09:50:12;;;;;;;1.20;1.10;;;4.40;97.30;;;;;;4898070;29;20444;-88
2023/11/27 09:53:10;;;;;;;1.60;1.50;;;4.40;97.30;;;;;;4904968;29;20452;-88
2023/11/27 09:55:40;;;;;;;1.40;1.30;;;4.40;97.30;;;;;;4884638;29;20991;-88
2023/11/27 09:58:08;;;;;;;2.43;2.23;;;4.50;97.30;;;;;;4882052;29;21013;-89
2023/11/27 10:00:34;;;;;;;2.10;1.27;;;4.50;97.30;;;;;;4914157;29;20419;-88
2023/11/27 10:03:02;;;;;;;1.73;1.63;;;4.50;97.30;;;;;;4897814;29;20464;-88
2023/11/27 10:05:28;;;;;;;1.23;1.13;;;4.60;97.30;;;;;;4897906;29;20476;-90
2023/11/27 10:07:54;;;;;;;1.37;1.30;;;4.60;97.30;;;;;;4900909;29;21007;-88
2023/11/27 10:10:27;;;;;;;9.20;2.07;;;4.70;97.30;;;;;;4915141;29;20180;-88
2023/11/27 10:13:01;;;;;;;3.43;2.47;;;4.70;97.30;;;;;;4914962;29;20425;-88
2023/11/27 10:15:26;;;;;;;3.63;2.13;;;4.80;97.30;;;;;;4915394;29;20451;-88
2023/11/27 10:17:56;;;;;;;2.40;2.20;;;4.80;97.30;;;;;;4902027;29;20943;-88
2023/11/27 10:20:23;;;;;;;1.83;1.63;;;4.80;97.30;;;;;;4915284;29;20374;-89
2023/11/27 10:22:49;;;;;;;1.73;1.63;;;4.80;97.30;;;;;;4917447;29;20475;-89
2023/11/27 10:25:16;;;;;;;2.43;2.23;;;4.80;97.30;;;;;;4898064;29;20479;-89
2023/11/27 10:27:43;;;;;;;1.30;1.20;;;4.90;97.30;;;;;;4913643;29;21128;-89
2023/11/27 10:30:20;;;;;;;1.53;1.43;;;5.00;97.30;;;;;;4914996;29;20554;-88
2023/11/27 10:32:48;;;;;;;1.30;1.20;;;5.00;97.30;;;;;;4901831;29;20440;-89
2023/11/27 10:35:15;;;;;;;1.10;1.00;;;5.00;97.30;;;;;;4914819;29;20436;-89
2023/11/27 10:37:42;;;;;;;1.20;1.10;;;5.00;97.30;;;;;;4898718;29;20432;-89
2023/11/27 10:40:14;;;;;;;1.87;1.77;;;5.00;97.30;;;;;;4915118;29;20459;-88
2023/11/27 10:42:48;;;;;;;2.17;2.00;;;5.00;97.30;;;;;;4898060;29;20829;-88
2023/11/27 10:45:18;;;;;;;1.00;0.90;;;5.00;97.30;;;;;;4897689;29;20517;-88
2023/11/27 10:47:47;;;;;;;1.43;1.33;;;5.00;97.30;;;;;;4897628;29;20429;-88
2023/11/27 10:50:16;;;;;;;1.60;1.53;;;5.00;97.30;;;;;;4897906;29;20439;-88
2023/11/27 10:52:49;;;;;;;1.43;1.33;;;5.10;97.30;;;;;;4902577;29;20456;-88
2023/11/27 10:55:19;;;;;;;1.00;0.90;;;5.10;97.30;;;;;;4901696;29;20499;-88
2023/11/27 10:57:47;;;;;;;1.30;1.20;;;5.10;97.30;;;;;;4901938;29;20815;-88
2023/11/27 11:00:18;;;;;;;1.07;1.00;;;5.10;97.30;;;;;;4914792;29;20428;-88
2023/11/27 11:02:50;;;;;;;1.10;1.00;;;5.10;97.30;;;;;;4920751;29;20929;-89
2023/11/27 11:05:27;;;;;;;1.80;1.70;;;5.20;97.30;;;;;;4897575;29;20612;-89
2023/11/27 11:07:55;;;;;;;1.60;1.50;;;5.20;97.30;;;;;;4911122;29;20439;-88
2023/11/27 11:10:26;;;;;;;1.63;1.40;;;5.10;97.30;;;;;;4909728;29;20441;-88
2023/11/27 11:12:54;;;;;;;1.27;1.17;;;5.10;97.30;;;;;;4904801;29;20492;-88
2023/11/27 11:15:40;;;;;;;1.73;1.50;;;5.10;97.30;;;;;;4917255;29;20423;-88
2023/11/27 11:18:14;;;;;;;1.20;1.13;;;5.10;97.30;;;;;;4907718;29;20425;-87
2023/11/27 11:21:21;;;;;;;1.90;1.43;;;5.00;97.30;;;;;;4902280;29;20966;-89
2023/11/27 11:24:29;;;;;;;3.93;1.63;;;5.00;97.30;;;;;;4916569;29;20571;-88
2023/11/27 11:27:34;;;;;;;1.37;1.30;;;5.10;97.30;;;;;;4900789;29;20953;-87
2023/11/27 11:30:04;;;;;;;1.37;1.33;;;5.20;97.30;;;;;;4913674;29;20421;-87
2023/11/27 11:32:30;;;;;;;1.40;1.30;;;5.20;97.30;;;;;;4900618;29;20850;-89
2023/11/27 11:34:58;;;;;;;2.40;1.60;;;5.20;97.30;;;;;;4904443;29;20431;-87
2023/11/27 11:37:25;;;;;;;1.70;1.60;;;5.30;97.30;;;;;;4898089;29;20204;-88
2023/11/27 11:39:53;;;;;;;1.33;1.23;;;5.30;97.30;;;;;;4901757;29;20817;-88
2023/11/27 11:42:25;;;;;;;5.20;3.53;;;5.30;97.30;;;;;;4901166;29;20452;-86
2023/11/27 11:45:17;;;;;;;1.63;1.53;;;5.20;97.30;;;;;;4900763;29;20471;-89
2023/11/27 11:47:59;;;;;;;1.00;0.90;;;5.20;97.30;;;;;;4904881;29;20843;-87
2023/11/27 11:50:29;;;;;;;1.50;1.40;;;5.20;97.30;;;;;;4915007;29;20723;-88
2023/11/27 11:52:59;;;;;;;1.30;1.20;;;5.20;97.30;;;;;;4917948;29;20511;-88
2023/11/27 11:55:30;;;;;;;2.67;1.80;;;5.20;97.30;;;;;;4914574;29;20421;-88
2023/11/27 11:58:07;;;;;;;1.73;1.67;;;5.20;97.30;;;;;;4916409;29;20439;-88
2023/11/27 12:00:43;;;;;;;1.73;1.73;;;5.20;97.30;;;;;;4898082;29;20442;-87
2023/11/27 12:03:18;;;;;;;2.30;1.33;;;5.20;97.30;;;;;;4908003;29;20435;-89
2023/11/27 12:05:57;;;;;;;2.90;2.70;;;5.20;97.30;;;;;;4905349;29;20471;-88
2023/11/27 12:08:30;;;;;;;7.60;2.10;;;5.20;97.30;;;;;;4917432;29;20495;-87
2023/11/27 12:10:58;;;;;;;1.90;1.80;;;5.20;97.30;;;;;;4917452;29;20448;-88
2023/11/27 12:13:26;;;;;;;1.20;1.13;;;5.10;97.30;;;;;;4904742;29;20484;-87
2023/11/27 12:15:58;;;;;;;1.47;1.00;;;5.10;97.30;;;;;;4909773;29;20435;-88
2023/11/27 12:18:25;;;;;;;2.17;2.00;;;5.00;97.30;;;;;;4905462;29;20871;-86
2023/11/27 12:20:51;;;;;;;1.30;1.20;;;5.00;97.30;;;;;;4908214;29;20448;-88
2023/11/27 12:23:17;;;;;;;1.53;1.43;;;5.00;97.30;;;;;;4900650;29;20520;-89
2023/11/27 12:25:43;;;;;;;3.30;3.10;;;5.00;97.30;;;;;;4904871;29;20895;-88
2023/11/27 12:28:10;;;;;;;2.30;2.10;;;4.90;97.30;;;;;;4915416;29;20463;-88
2023/11/27 12:30:38;;;;;;;2.00;1.57;;;4.90;97.30;;;;;;4916805;29;20214;-88
2023/11/27 12:33:04;;;;;;;1.30;1.20;;;4.90;97.30;;;;;;4900483;29;20428;-86
2023/11/27 12:35:31;;;;;;;2.10;1.97;;;4.90;97.30;;;;;;4925329;29;20835;-87
2023/11/27 12:38:05;;;;;;;1.50;1.40;;;4.90;97.30;;;;;;4928258;29;20420;-86
2023/11/27 12:40:33;;;;;;;1.17;1.07;;;5.00;97.30;;;;;;4903107;29;20776;-88
2023/11/27 12:43:03;;;;;;;1.70;1.60;;;4.90;97.30;;;;;;4897797;29;20428;-88
2023/11/27 12:45:31;;;;;;;2.13;2.00;;;5.00;97.30;;;;;;4905596;29;20495;-88
2023/11/27 12:47:57;;;;;;;1.10;1.00;;;5.00;97.30;;;;;;4919578;29;20415;-88
2023/11/27 12:50:31;;;;;;;2.50;1.53;;;5.00;97.30;;;;;;4899596;29;20420;-88
2023/11/27 12:53:07;;;;;;;1.27;1.20;;;5.00;97.30;;;;;;4917231;29;20507;-88
2023/11/27 12:55:47;;;;;;;2.00;1.47;;;4.90;97.30;;;;;;4903656;29;20439;-88
2023/11/27 12:58:13;;;;;;;5.17;1.70;;;4.90;97.30;;;;;;4916356;29;20432;-88
2023/11/27 13:00:43;;;;;;;1.17;1.07;;;4.90;97.30;;;;;;4904492;29;20964;-87
2023/11/27 13:03:19;;;;;;;1.40;1.30;;;4.90;97.30;;;;;;4919832;29;20188;-88
2023/11/27 13:05:51;;;;;;;1.57;1.47;;;4.90;97.30;;;;;;4920999;29;20464;-88
2023/11/27 13:08:24;;;;;;;7.40;2.30;;;4.90;97.30;;;;;;4900759;29;20427;-88
2023/11/27 13:10:51;;;;;;;2.97;2.23;;;4.90;97.30;;;;;;4904001;29;20503;-88
2023/11/27 13:13:25;;;;;;;1.67;1.53;;;4.90;97.30;;;;;;4906597;29;21186;-88
2023/11/27 13:15:58;;;;;;;1.47;1.37;;;4.90;97.30;;;;;;4907261;29;20428;-88
2023/11/27 13:18:28;;;;;;;1.67;1.30;;;4.90;97.30;;;;;;4903140;29;20420;-88
2023/11/27 13:20:55;;;;;;;2.20;1.73;;;4.90;97.30;;;;;;4906459;29;20449;-88
2023/11/27 13:23:21;;;;;;;1.50;1.40;;;4.90;97.30;;;;;;4908435;29;20435;-89
2023/11/27 13:25:48;;;;;;;1.87;1.33;;;4.90;97.30;;;;;;4909948;29;20464;-87
2023/11/27 13:28:20;;;;;;;1.10;1.00;;;4.90;97.30;;;;;;4902587;29;21197;-87
2023/11/27 13:30:55;;;;;;;2.30;2.10;;;4.90;97.30;;;;;;4906027;29;20441;-87
2023/11/27 13:33:21;;;;;;;1.40;1.30;;;4.90;97.30;;;;;;4903669;29;20557;-87
2023/11/27 13:35:47;;;;;;;2.43;2.30;;;4.90;97.30;;;;;;4907764;29;20420;-87
2023/11/27 13:38:17;;;;;;;2.93;1.90;;;4.90;97.30;;;;;;4902196;29;20431;-86
2023/11/27 13:40:50;;;;;;;1.23;1.13;;;4.80;97.30;;;;;;4919003;29;20323;-87
2023/11/27 13:43:18;;;;;;;1.43;1.40;;;4.80;97.30;;;;;;4920637;29;20484;-87
2023/11/27 13:45:47;;;;;;;2.03;1.90;;;4.70;97.30;;;;;;4914930;29;20998;-86
2023/11/27 13:48:19;;;;;;;1.67;1.33;;;4.70;97.30;;;;;;4915321;29;20927;-87
2023/11/27 13:50:45;;;;;;;1.97;1.87;;;4.70;97.30;;;;;;4900280;29;20499;-87
2023/11/27 13:53:15;;;;;;;1.83;1.73;;;4.70;97.30;;;;;;4896742;29;20524;-86
2023/11/27 13:55:42;;;;;;;1.23;1.13;;;4.70;97.30;;;;;;4905687;29;20432;-88
2023/11/27 13:58:08;;;;;;;15.23;1.83;;;4.70;97.30;;;;;;4904509;29;20442;-87
2023/11/27 14:00:48;;;;;;;1.47;1.37;;;4.60;97.30;;;;;;4904121;29;20439;-86
2023/11/27 14:03:21;;;;;;;1.17;1.07;;;4.50;97.30;;;;;;4904034;29;20472;-88
2023/11/27 14:05:49;;;;;;;1.47;1.37;;;4.50;97.30;;;;;;4898080;29;20512;-87
2023/11/27 14:08:19;;;;;;;1.30;1.20;;;4.50;97.30;;;;;;4898398;29;20512;-87
2023/11/27 14:11:00;;;;;;;0.90;0.80;;;4.50;97.30;;;;;;4904056;29;20483;-87
2023/11/27 14:13:27;;;;;;;1.47;1.37;;;4.40;97.30;;;;;;4902959;29;20431;-87
2023/11/27 14:15:57;;;;;;;1.90;1.47;;;4.40;97.30;;;;;;4903066;29;20428;-86
2023/11/27 14:22:55;;;;;;;1.60;1.53;;;4.40;97.30;;;;;;4909299;29;21028;-86
2023/11/27 14:31:14;;;;;;;2.00;1.80;;;4.40;97.30;;;;;;4915109;29;20441;-87
2023/11/27 14:33:40;;;;;;;1.80;1.47;;;4.40;97.30;;;;;;4915299;29;20504;-87
2023/11/27 14:36:11;;;;;;;1.33;1.23;;;4.40;97.30;;;;;;4914972;29;20420;-86
2023/11/27 14:38:37;;;;;;;2.30;2.10;;;4.40;97.30;;;;;;4898353;29;20487;-86
2023/11/27 14:41:06;;;;;;;1.90;1.87;;;4.30;97.30;;;;;;4903392;29;20459;-86
2023/11/27 14:43:32;;;;;;;1.10;1.00;;;4.30;97.30;;;;;;4902316;29;20424;-87
2023/11/27 14:45:58;;;;;;;2.23;2.13;;;4.30;97.30;;;;;;4904651;29;20468;-87
2023/11/27 14:48:30;;;;;;;1.10;1.00;;;4.30;97.30;;;;;;4903027;29;20420;-87
2023/11/27 14:50:56;;;;;;;1.37;1.27;;;4.30;97.30;;;;;;4906976;29;20982;-87
2023/11/27 14:53:22;;;;;;;1.47;1.20;;;4.30;97.30;;;;;;4907372;29;20424;-87
2023/11/27 14:55:50;;;;;;;1.70;1.60;;;4.30;97.30;;;;;;4901596;29;20188;-88
2023/11/27 14:58:16;;;;;;;1.50;1.23;;;4.30;97.30;;;;;;4901166;29;20467;-86
2023/11/27 15:00:44;;;;;;;1.43;1.20;;;4.30;97.30;;;;;;4900509;29;20568;-86
2023/11/27 15:03:19;;;;;;;1.17;1.07;;;4.20;97.30;;;;;;4916357;29;20456;-86
2023/11/27 15:05:45;;;;;;;1.53;1.33;;;4.10;97.30;;;;;;4917116;29;20472;-87
2023/11/27 15:08:11;;;;;;;1.97;1.63;;;4.10;97.30;;;;;;4916856;29;20431;-88
2023/11/27 15:10:37;;;;;;;1.67;1.53;;;4.00;97.30;;;;;;4900861;29;20424;-85
2023/11/27 15:13:05;;;;;;;2.60;1.20;;;4.00;97.30;;;;;;4912372;29;20453;-86
2023/11/27 15:15:31;;;;;;;1.20;1.10;;;4.00;97.30;;;;;;4906570;29;20199;-86
2023/11/27 15:17:57;;;;;;;1.07;1.00;;;4.00;97.30;;;;;;4907752;29;20429;-85
2023/11/27 15:20:23;;;;;;;1.30;1.20;;;3.90;97.30;;;;;;4907200;29;20619;-85
2023/11/27 15:22:51;;;;;;;1.27;1.17;;;3.90;97.30;;;;;;4917659;29;20420;-87
2023/11/27 15:25:22;;;;;;;2.40;1.20;;;4.00;97.30;;;;;;4904668;29;20208;-87
2023/11/27 15:27:52;;;;;;;6.40;1.37;;;4.00;97.30;;;;;;4900311;29;20744;-86
2023/11/27 15:30:18;;;;;;;1.50;1.40;;;3.90;97.30;;;;;;4900799;29;20491;-87
2023/11/27 15:32:45;;;;;;;1.10;1.00;;;3.80;97.30;;;;;;4900278;29;20453;-87
2023/11/27 15:35:11;;;;;;;1.00;0.90;;;3.70;97.30;;;;;;4899493;29;20488;-88
2023/11/27 15:37:39;;;;;;;1.83;1.73;;;3.60;97.30;;;;;;4898314;29;20997;-88
2023/11/27 15:40:08;;;;;;;1.10;1.00;;;3.50;97.30;;;;;;4903336;29;20429;-88
2023/11/27 15:42:35;;;;;;;1.53;1.43;;;3.40;97.30;;;;;;4899861;29;20491;-87
2023/11/27 15:45:02;;;;;;;1.47;1.40;;;3.40;97.30;;;;;;4910457;29;20499;-88
2023/11/27 15:47:27;;;;;;;1.10;1.00;;;3.40;97.30;;;;;;4901371;29;20436;-88
2023/11/27 15:49:53;;;;;;;6.23;1.90;;;3.30;97.30;;;;;;4900693;29;20507;-88
2023/11/27 15:52:18;;;;;;;1.00;0.90;;;3.30;97.30;;;;;;4898886;29;20208;-88
2023/11/27 15:54:44;;;;;;;1.10;1.00;;;3.30;97.30;;;;;;4898111;29;20663;-87
2023/11/27 15:57:10;;;;;;;1.10;1.00;;;3.30;97.30;;;;;;4894730;29;20185;-89
2023/11/27 15:59:38;;;;;;;1.20;1.10;;;3.30;97.30;;;;;;4896518;29;20196;-87
2023/11/27 16:02:05;;;;;;;1.10;1.00;;;3.20;97.30;;;;;;4903309;29;20283;-90
2023/11/27 16:04:31;;;;;;;0.97;0.87;;;3.10;97.30;;;;;;4897080;29;20447;-90
2023/11/27 16:06:57;;;;;;;2.30;1.00;;;3.10;97.30;;;;;;4898926;29;20428;-87
2023/11/27 16:09:25;;;;;;;1.73;1.20;;;3.10;97.30;;;;;;4898051;29;20185;-86
2023/11/27 16:11:51;;;;;;;1.23;1.13;;;3.10;97.30;;;;;;4895430;29;20440;-90
2023/11/27 16:14:17;;;;;;;1.00;0.90;;;3.00;97.30;;;;;;4904757;29;20960;-90
2023/11/27 16:16:50;;;;;;;1.37;1.27;;;3.00;97.30;;;;;;4916727;29;20424;-89
2023/11/27 16:19:17;;;;;;;18.13;1.83;;;2.90;97.30;;;;;;4899427;29;20436;-88
2023/11/27 16:21:43;;;;;;;1.00;0.90;;;2.90;97.30;;;;;;4916527;29;20452;-88
2023/11/27 16:24:10;;;;;;;1.00;0.90;;;2.90;97.30;;;;;;4896857;29;20448;-87
2023/11/27 16:26:35;;;;;;;1.70;1.60;;;2.80;97.30;;;;;;4903339;29;20892;-88
2023/11/27 16:29:01;;;;;;;1.20;1.10;;;2.80;97.30;;;;;;4914947;29;20504;-90
2023/11/27 16:31:27;;;;;;;1.00;1.00;;;2.80;97.30;;;;;;4916326;29;20308;-88
2023/11/27 16:33:53;;;;;;;1.10;1.00;;;2.80;97.30;;;;;;4900284;29;20519;-89
2023/11/27 16:36:18;;;;;;;1.80;1.77;;;2.80;97.30;;;;;;4916335;29;20184;-88
2023/11/27 16:38:47;;;;;;;1.00;0.90;;;2.80;97.30;;;;;;4905649;29;20192;-89
2023/11/27 16:41:12;;;;;;;1.20;1.10;;;2.80;97.30;;;;;;4899986;29;20220;-88
2023/11/27 16:43:39;;;;;;;1.17;1.07;;;2.70;97.30;;;;;;4905625;29;20416;-88
2023/11/27 16:46:08;;;;;;;1.27;1.20;;;2.70;97.30;;;;;;4901526;29;20208;-88
2023/11/27 16:48:34;;;;;;;2.83;2.30;;;2.70;97.30;;;;;;4906230;29;20432;-88
2023/11/27 16:50:59;;;;;;;1.40;1.30;;;2.70;97.30;;;;;;4899788;29;20452;-88
2023/11/27 16:53:25;;;;;;;1.00;0.90;;;2.70;97.30;;;;;;4899250;29;20428;-86
2023/11/27 16:55:54;;;;;;;1.10;1.00;;;2.70;97.30;;;;;;4905724;29;20185;-90
2023/11/27 16:58:21;;;;;;;1.13;1.03;;;2.70;97.30;;;;;;4898871;29;20188;-91
2023/11/27 17:00:49;;;;;;;0.90;0.80;;;2.70;97.30;;;;;;4898868;29;20623;-89
2023/11/27 17:03:15;;;;;;;1.83;1.73;;;2.70;97.30;;;;;;4915672;29;20985;-89
2023/11/27 17:05:42;;;;;;;1.30;1.20;;;2.60;97.30;;;;;;4905831;29;20472;-85
2023/11/27 17:08:09;;;;;;;3.67;1.10;;;2.60;97.30;;;;;;4897785;29;20424;-86
2023/11/27 17:10:39;;;;;;;1.00;0.90;;;2.60;97.30;;;;;;4898924;29;20815;-90
2023/11/27 17:13:11;;;;;;;1.10;1.00;;;2.50;97.30;;;;;;4899433;29;20962;-90
2023/11/27 17:15:44;;;;;;;1.20;1.10;;;2.50;97.30;;;;;;4896317;29;20998;-87
2023/11/27 17:18:10;;;;;;;1.20;1.10;;;2.60;97.30;;;;;;4897978;29;20432;-88
2023/11/27 17:20:37;;;;;;;0.93;0.83;;;2.60;97.30;;;;;;4899685;29;20683;-87
2023/11/27 17:23:06;;;;;;;2.40;1.10;;;2.50;97.30;;;;;;4897298;29;20821;-89
2023/11/27 17:25:37;;;;;;;1.10;1.00;;;2.50;97.30;;;;;;4896986;29;21009;-87
2023/11/27 17:28:09;;;;;;;1.00;0.90;;;2.60;97.30;;;;;;4911085;29;20475;-89
2023/11/27 17:30:36;;;;;;;1.10;1.00;;;2.60;97.30;;;;;;4912222;29;20478;-89
2023/11/27 17:33:06;;;;;;;1.20;1.10;;;2.60;97.30;;;;;;4913702;29;20425;-89
2023/11/27 17:35:32;;;;;;;1.00;0.90;;;2.60;97.30;;;;;;4895137;29;21067;-87
2023/11/27 17:37:58;;;;;;;1.00;0.90;;;2.50;97.30;;;;;;4898492;29;20969;-88
2023/11/27 17:40:25;;;;;;;1.07;0.97;;;2.50;97.30;;;;;;4894933;29;20475;-87
2023/11/27 17:42:51;;;;;;;1.00;0.90;;;2.50;97.30;;;;;;4888913;29;20432;-88
2023/11/27 17:45:18;;;;;;;1.00;0.90;;;2.40;97.30;;;;;;4901361;29;20465;-90
2023/11/27 17:47:46;;;;;;;1.00;0.90;;;2.40;97.30;;;;;;4898539;29;20243;-89
2023/11/27 17:50:21;;;;;;;1.27;1.17;;;2.40;97.30;;;;;;4893169;29;20427;-88
2023/11/27 17:52:52;;;;;;;1.00;0.90;;;2.50;97.30;;;;;;4897643;29;20568;-87
2023/11/27 17:55:20;;;;;;;1.47;1.37;;;2.50;97.30;;;;;;4898019;29;20433;-90
2023/11/27 17:57:46;;;;;;;0.90;0.80;;;2.50;97.30;;;;;;4894907;29;20444;-90
2023/11/27 18:00:17;;;;;;;1.37;1.27;;;2.40;97.30;;;;;;4885713;29;20441;-89
2023/11/27 18:02:45;;;;;;;1.23;1.13;;;2.40;97.30;;;;;;4892383;29;20492;-90
2023/11/27 18:05:13;;;;;;;1.20;1.10;;;2.40;97.30;;;;;;4887482;29;20558;-89
2023/11/27 18:07:40;;;;;;;1.80;1.50;;;2.40;97.30;;;;;;4887342;29;20942;-89
2023/11/27 18:10:07;;;;;;;1.37;1.27;;;2.40;97.30;;;;;;4905239;29;20432;-90
2023/11/27 18:12:33;;;;;;;1.40;1.30;;;2.50;97.30;;;;;;4888078;29;20521;-88
2023/11/27 18:14:59;;;;;;;2.93;1.30;;;2.50;97.30;;;;;;4897089;29;20883;-91